sensor_id;sensor_type;location;lat;lon;timestamp;P1;durP1;ratioP1;P2;durP2;ratioP2
67979;SDS011;54760;47.490;19.030;2024-03-22T00:01:44;15.88;;;9.32;;
67979;SDS011;54760;47.490;19.030;2024-03-22T00:04:10;19.33;;;10.32;;
67979;SDS011;54760;47.490;19.030;2024-03-22T00:06:35;18.33;;;9.13;;
67979;SDS011;54760;47.490;19.030;2024-03-22T00:09:01;16.95;;;9.45;;
67979;SDS011;54760;47.490;19.030;2024-03-22T00:11:28;17.52;;;9.60;;
67979;SDS011;54760;47.490;19.030;2024-03-22T00:13:54;23.20;;;9.70;;
67979;SDS011;54760;47.490;19.030;2024-03-22T00:16:19;20.70;;;10.13;;
67979;SDS011;54760;47.490;19.030;2024-03-22T00:18:44;15.55;;;9.75;;
67979;SDS011;54760;47.490;19.030;2024-03-22T00:21:10;17.67;;;10.48;;
67979;SDS011;54760;47.490;19.030;2024-03-22T00:23:35;27.75;;;11.00;;
67979;SDS011;54760;47.490;19.030;2024-03-22T00:26:01;20.77;;;9.70;;
67979;SDS011;54760;47.490;19.030;2024-03-22T00:28:26;20.33;;;9.77;;
67979;SDS011;54760;47.490;19.030;2024-03-22T00:30:52;18.12;;;9.57;;
67979;SDS011;54760;47.490;19.030;2024-03-22T00:33:17;20.37;;;9.45;;
67979;SDS011;54760;47.490;19.030;2024-03-22T00:35:43;20.05;;;9.93;;
67979;SDS011;54760;47.490;19.030;2024-03-22T00:38:08;17.50;;;9.48;;
67979;SDS011;54760;47.490;19.030;2024-03-22T00:40:34;18.85;;;9.95;;
67979;SDS011;54760;47.490;19.030;2024-03-22T00:42:59;17.73;;;9.55;;
67979;SDS011;54760;47.490;19.030;2024-03-22T00:45:25;16.83;;;9.02;;
67979;SDS011;54760;47.490;19.030;2024-03-22T00:47:51;18.92;;;9.85;;
67979;SDS011;54760;47.490;19.030;2024-03-22T00:50:16;19.30;;;9.25;;
67979;SDS011;54760;47.490;19.030;2024-03-22T00:52:43;22.25;;;10.15;;
67979;SDS011;54760;47.490;19.030;2024-03-22T00:55:08;22.35;;;10.27;;
67979;SDS011;54760;47.490;19.030;2024-03-22T00:57:34;18.40;;;10.70;;
67979;SDS011;54760;47.490;19.030;2024-03-22T00:59:59;17.83;;;9.75;;
67979;SDS011;54760;47.490;19.030;2024-03-22T01:02:24;18.15;;;9.32;;
67979;SDS011;54760;47.490;19.030;2024-03-22T01:04:50;15.23;;;9.13;;
67979;SDS011;54760;47.490;19.030;2024-03-22T01:07:15;18.48;;;9.70;;
67979;SDS011;54760;47.490;19.030;2024-03-22T01:09:41;20.33;;;10.00;;
67979;SDS011;54760;47.490;19.030;2024-03-22T01:12:09;19.60;;;9.40;;
67979;SDS011;54760;47.490;19.030;2024-03-22T01:14:35;18.20;;;9.23;;
67979;SDS011;54760;47.490;19.030;2024-03-22T01:17:01;17.48;;;9.10;;
67979;SDS011;54760;47.490;19.030;2024-03-22T01:19:27;17.17;;;9.13;;
67979;SDS011;54760;47.490;19.030;2024-03-22T01:21:53;17.37;;;9.45;;
67979;SDS011;54760;47.490;19.030;2024-03-22T01:24:18;17.40;;;9.27;;
67979;SDS011;54760;47.490;19.030;2024-03-22T01:26:43;16.83;;;8.55;;
67979;SDS011;54760;47.490;19.030;2024-03-22T01:29:09;20.05;;;9.05;;
67979;SDS011;54760;47.490;19.030;2024-03-22T01:31:34;16.77;;;8.82;;
67979;SDS011;54760;47.490;19.030;2024-03-22T01:34:00;18.50;;;8.85;;
67979;SDS011;54760;47.490;19.030;2024-03-22T01:36:25;17.52;;;9.35;;
67979;SDS011;54760;47.490;19.030;2024-03-22T01:38:51;17.65;;;8.95;;
67979;SDS011;54760;47.490;19.030;2024-03-22T01:41:16;19.85;;;9.48;;
67979;SDS011;54760;47.490;19.030;2024-03-22T01:43:42;17.50;;;9.43;;
67979;SDS011;54760;47.490;19.030;2024-03-22T01:46:08;17.77;;;8.68;;
67979;SDS011;54760;47.490;19.030;2024-03-22T01:48:34;15.10;;;8.85;;
67979;SDS011;54760;47.490;19.030;2024-03-22T01:51:00;20.35;;;9.40;;
67979;SDS011;54760;47.490;19.030;2024-03-22T01:53:27;16.98;;;8.50;;
67979;SDS011;54760;47.490;19.030;2024-03-22T01:55:52;16.37;;;8.80;;
67979;SDS011;54760;47.490;19.030;2024-03-22T01:58:18;17.52;;;8.95;;
67979;SDS011;54760;47.490;19.030;2024-03-22T02:00:43;22.30;;;9.50;;
67979;SDS011;54760;47.490;19.030;2024-03-22T02:03:09;17.87;;;9.40;;
67979;SDS011;54760;47.490;19.030;2024-03-22T02:05:34;19.55;;;9.15;;
67979;SDS011;54760;47.490;19.030;2024-03-22T02:08:00;18.83;;;9.48;;
67979;SDS011;54760;47.490;19.030;2024-03-22T02:10:25;17.27;;;9.38;;
67979;SDS011;54760;47.490;19.030;2024-03-22T02:12:51;17.75;;;9.02;;
67979;SDS011;54760;47.490;19.030;2024-03-22T02:15:16;20.00;;;9.77;;
67979;SDS011;54760;47.490;19.030;2024-03-22T02:17:42;16.60;;;8.52;;
67979;SDS011;54760;47.490;19.030;2024-03-22T02:20:07;17.37;;;9.00;;
67979;SDS011;54760;47.490;19.030;2024-03-22T02:22:33;20.85;;;10.10;;
67979;SDS011;54760;47.490;19.030;2024-03-22T02:24:59;18.58;;;9.45;;
67979;SDS011;54760;47.490;19.030;2024-03-22T02:27:25;17.87;;;9.63;;
67979;SDS011;54760;47.490;19.030;2024-03-22T02:29:51;19.42;;;10.30;;
67979;SDS011;54760;47.490;19.030;2024-03-22T02:32:16;20.40;;;10.35;;
67979;SDS011;54760;47.490;19.030;2024-03-22T02:34:41;17.17;;;10.00;;
67979;SDS011;54760;47.490;19.030;2024-03-22T02:37:07;19.77;;;10.38;;
67979;SDS011;54760;47.490;19.030;2024-03-22T02:39:32;19.02;;;10.23;;
67979;SDS011;54760;47.490;19.030;2024-03-22T02:41:58;18.50;;;9.75;;
67979;SDS011;54760;47.490;19.030;2024-03-22T02:44:23;22.20;;;9.95;;
67979;SDS011;54760;47.490;19.030;2024-03-22T02:46:49;17.58;;;9.43;;
67979;SDS011;54760;47.490;19.030;2024-03-22T02:49:14;21.70;;;10.68;;
67979;SDS011;54760;47.490;19.030;2024-03-22T02:51:40;18.10;;;9.68;;
67979;SDS011;54760;47.490;19.030;2024-03-22T02:54:05;17.98;;;9.90;;
67979;SDS011;54760;47.490;19.030;2024-03-22T02:56:31;20.52;;;10.63;;
67979;SDS011;54760;47.490;19.030;2024-03-22T02:58:56;23.67;;;11.02;;
67979;SDS011;54760;47.490;19.030;2024-03-22T03:01:22;19.17;;;10.07;;
67979;SDS011;54760;47.490;19.030;2024-03-22T03:03:47;20.50;;;9.88;;
67979;SDS011;54760;47.490;19.030;2024-03-22T03:06:13;20.62;;;10.50;;
67979;SDS011;54760;47.490;19.030;2024-03-22T03:08:38;20.25;;;10.20;;
67979;SDS011;54760;47.490;19.030;2024-03-22T03:11:04;23.52;;;10.90;;
67979;SDS011;54760;47.490;19.030;2024-03-22T03:13:30;19.00;;;10.00;;
67979;SDS011;54760;47.490;19.030;2024-03-22T03:15:56;23.52;;;11.48;;
67979;SDS011;54760;47.490;19.030;2024-03-22T03:18:22;18.90;;;10.50;;
67979;SDS011;54760;47.490;19.030;2024-03-22T03:20:47;15.50;;;9.27;;
67979;SDS011;54760;47.490;19.030;2024-03-22T03:23:13;20.75;;;10.50;;
67979;SDS011;54760;47.490;19.030;2024-03-22T03:25:38;19.15;;;10.75;;
67979;SDS011;54760;47.490;19.030;2024-03-22T03:28:03;19.62;;;11.00;;
67979;SDS011;54760;47.490;19.030;2024-03-22T03:30:29;19.58;;;11.52;;
67979;SDS011;54760;47.490;19.030;2024-03-22T03:32:55;16.08;;;10.30;;
67979;SDS011;54760;47.490;19.030;2024-03-22T03:35:20;22.50;;;10.52;;
67979;SDS011;54760;47.490;19.030;2024-03-22T03:37:45;20.02;;;10.15;;
67979;SDS011;54760;47.490;19.030;2024-03-22T03:40:11;19.85;;;10.80;;
67979;SDS011;54760;47.490;19.030;2024-03-22T03:42:36;17.85;;;10.18;;
67979;SDS011;54760;47.490;19.030;2024-03-22T03:45:02;21.45;;;10.95;;
67979;SDS011;54760;47.490;19.030;2024-03-22T03:47:27;18.80;;;11.20;;
67979;SDS011;54760;47.490;19.030;2024-03-22T03:49:53;18.20;;;10.18;;
67979;SDS011;54760;47.490;19.030;2024-03-22T03:52:18;16.73;;;10.00;;
67979;SDS011;54760;47.490;19.030;2024-03-22T03:54:44;18.90;;;10.57;;
67979;SDS011;54760;47.490;19.030;2024-03-22T03:57:09;21.30;;;10.88;;
67979;SDS011;54760;47.490;19.030;2024-03-22T03:59:34;22.35;;;11.02;;
67979;SDS011;54760;47.490;19.030;2024-03-22T04:02:00;16.42;;;9.88;;
67979;SDS011;54760;47.490;19.030;2024-03-22T04:04:25;18.65;;;10.00;;
67979;SDS011;54760;47.490;19.030;2024-03-22T04:06:51;22.77;;;10.90;;
67979;SDS011;54760;47.490;19.030;2024-03-22T04:09:16;18.70;;;10.60;;
67979;SDS011;54760;47.490;19.030;2024-03-22T04:11:41;21.25;;;11.63;;
67979;SDS011;54760;47.490;19.030;2024-03-22T04:14:07;22.67;;;10.75;;
67979;SDS011;54760;47.490;19.030;2024-03-22T04:16:32;20.42;;;11.32;;
67979;SDS011;54760;47.490;19.030;2024-03-22T04:18:58;26.02;;;11.43;;
67979;SDS011;54760;47.490;19.030;2024-03-22T04:21:23;19.15;;;10.65;;
67979;SDS011;54760;47.490;19.030;2024-03-22T04:23:48;17.30;;;10.98;;
67979;SDS011;54760;47.490;19.030;2024-03-22T04:26:14;18.90;;;10.80;;
67979;SDS011;54760;47.490;19.030;2024-03-22T04:28:41;21.08;;;11.80;;
67979;SDS011;54760;47.490;19.030;2024-03-22T04:31:07;21.30;;;11.00;;
67979;SDS011;54760;47.490;19.030;2024-03-22T04:33:36;18.27;;;11.40;;
67979;SDS011;54760;47.490;19.030;2024-03-22T04:36:02;17.73;;;11.38;;
67979;SDS011;54760;47.490;19.030;2024-03-22T04:38:29;19.05;;;11.12;;
67979;SDS011;54760;47.490;19.030;2024-03-22T04:40:55;18.87;;;11.88;;
67979;SDS011;54760;47.490;19.030;2024-03-22T04:43:21;20.10;;;11.57;;
67979;SDS011;54760;47.490;19.030;2024-03-22T04:45:47;20.83;;;11.95;;
67979;SDS011;54760;47.490;19.030;2024-03-22T04:48:17;19.25;;;11.23;;
67979;SDS011;54760;47.490;19.030;2024-03-22T04:50:44;19.25;;;11.02;;
67979;SDS011;54760;47.490;19.030;2024-03-22T04:53:10;17.62;;;11.70;;
67979;SDS011;54760;47.490;19.030;2024-03-22T04:55:35;17.60;;;11.55;;
67979;SDS011;54760;47.490;19.030;2024-03-22T04:58:01;18.50;;;11.63;;
67979;SDS011;54760;47.490;19.030;2024-03-22T05:00:30;19.70;;;11.95;;
67979;SDS011;54760;47.490;19.030;2024-03-22T05:02:55;16.90;;;11.15;;
67979;SDS011;54760;47.490;19.030;2024-03-22T05:05:21;16.67;;;10.95;;
67979;SDS011;54760;47.490;19.030;2024-03-22T05:07:46;18.15;;;10.82;;
67979;SDS011;54760;47.490;19.030;2024-03-22T05:10:12;16.25;;;10.90;;
67979;SDS011;54760;47.490;19.030;2024-03-22T05:12:38;16.55;;;11.48;;
67979;SDS011;54760;47.490;19.030;2024-03-22T05:15:03;16.58;;;10.70;;
67979;SDS011;54760;47.490;19.030;2024-03-22T05:17:29;15.70;;;10.40;;
67979;SDS011;54760;47.490;19.030;2024-03-22T05:19:57;18.92;;;11.35;;
67979;SDS011;54760;47.490;19.030;2024-03-22T05:22:23;18.60;;;11.45;;
67979;SDS011;54760;47.490;19.030;2024-03-22T05:24:48;16.70;;;11.15;;
67979;SDS011;54760;47.490;19.030;2024-03-22T05:27:13;19.62;;;11.65;;
67979;SDS011;54760;47.490;19.030;2024-03-22T05:29:39;16.20;;;11.05;;
67979;SDS011;54760;47.490;19.030;2024-03-22T05:32:04;18.95;;;11.65;;
67979;SDS011;54760;47.490;19.030;2024-03-22T05:34:30;19.40;;;10.75;;
67979;SDS011;54760;47.490;19.030;2024-03-22T05:36:56;18.15;;;11.63;;
67979;SDS011;54760;47.490;19.030;2024-03-22T05:39:21;18.33;;;11.32;;
67979;SDS011;54760;47.490;19.030;2024-03-22T05:41:47;16.80;;;11.07;;
67979;SDS011;54760;47.490;19.030;2024-03-22T05:44:12;19.52;;;11.70;;
67979;SDS011;54760;47.490;19.030;2024-03-22T05:46:37;17.23;;;12.05;;
67979;SDS011;54760;47.490;19.030;2024-03-22T05:49:03;20.48;;;11.23;;
67979;SDS011;54760;47.490;19.030;2024-03-22T05:51:28;18.10;;;10.90;;
67979;SDS011;54760;47.490;19.030;2024-03-22T05:53:56;17.80;;;11.68;;
67979;SDS011;54760;47.490;19.030;2024-03-22T05:56:21;17.58;;;10.75;;
67979;SDS011;54760;47.490;19.030;2024-03-22T05:58:47;17.65;;;10.88;;
67979;SDS011;54760;47.490;19.030;2024-03-22T06:01:12;19.35;;;10.70;;
67979;SDS011;54760;47.490;19.030;2024-03-22T06:03:38;17.65;;;11.75;;
67979;SDS011;54760;47.490;19.030;2024-03-22T06:06:03;16.92;;;10.82;;
67979;SDS011;54760;47.490;19.030;2024-03-22T06:08:29;18.65;;;10.98;;
67979;SDS011;54760;47.490;19.030;2024-03-22T06:10:56;17.30;;;11.15;;
67979;SDS011;54760;47.490;19.030;2024-03-22T06:13:22;17.12;;;10.77;;
67979;SDS011;54760;47.490;19.030;2024-03-22T06:15:49;16.10;;;11.00;;
67979;SDS011;54760;47.490;19.030;2024-03-22T06:18:15;20.30;;;11.38;;
67979;SDS011;54760;47.490;19.030;2024-03-22T06:20:40;18.75;;;10.43;;
67979;SDS011;54760;47.490;19.030;2024-03-22T06:23:07;21.42;;;11.07;;
67979;SDS011;54760;47.490;19.030;2024-03-22T06:25:33;18.42;;;10.63;;
67979;SDS011;54760;47.490;19.030;2024-03-22T06:27:58;19.55;;;11.05;;
67979;SDS011;54760;47.490;19.030;2024-03-22T06:30:24;16.25;;;10.57;;
67979;SDS011;54760;47.490;19.030;2024-03-22T06:32:49;18.58;;;11.48;;
67979;SDS011;54760;47.490;19.030;2024-03-22T06:35:15;17.05;;;11.15;;
67979;SDS011;54760;47.490;19.030;2024-03-22T06:37:40;16.08;;;11.15;;
67979;SDS011;54760;47.490;19.030;2024-03-22T06:40:06;19.35;;;11.38;;
67979;SDS011;54760;47.490;19.030;2024-03-22T06:42:32;17.92;;;11.00;;
67979;SDS011;54760;47.490;19.030;2024-03-22T06:44:58;17.15;;;11.00;;
67979;SDS011;54760;47.490;19.030;2024-03-22T06:47:23;24.35;;;11.20;;
67979;SDS011;54760;47.490;19.030;2024-03-22T06:49:48;22.23;;;11.55;;
67979;SDS011;54760;47.490;19.030;2024-03-22T06:52:14;18.98;;;11.15;;
67979;SDS011;54760;47.490;19.030;2024-03-22T06:54:40;20.65;;;11.70;;
67979;SDS011;54760;47.490;19.030;2024-03-22T06:57:06;18.45;;;11.20;;
67979;SDS011;54760;47.490;19.030;2024-03-22T06:59:31;17.40;;;11.23;;
67979;SDS011;54760;47.490;19.030;2024-03-22T07:01:57;17.20;;;11.07;;
67979;SDS011;54760;47.490;19.030;2024-03-22T07:04:22;16.00;;;10.50;;
67979;SDS011;54760;47.490;19.030;2024-03-22T07:06:48;16.37;;;10.57;;
67979;SDS011;54760;47.490;19.030;2024-03-22T07:09:13;22.27;;;12.00;;
67979;SDS011;54760;47.490;19.030;2024-03-22T07:11:39;22.52;;;11.25;;
67979;SDS011;54760;47.490;19.030;2024-03-22T07:14:04;18.23;;;10.75;;
67979;SDS011;54760;47.490;19.030;2024-03-22T07:16:30;16.73;;;10.38;;
67979;SDS011;54760;47.490;19.030;2024-03-22T07:18:55;18.20;;;10.70;;
67979;SDS011;54760;47.490;19.030;2024-03-22T07:21:21;17.75;;;11.18;;
67979;SDS011;54760;47.490;19.030;2024-03-22T07:23:46;16.10;;;11.12;;
67979;SDS011;54760;47.490;19.030;2024-03-22T07:26:12;17.77;;;11.48;;
67979;SDS011;54760;47.490;19.030;2024-03-22T07:28:37;19.67;;;11.48;;
67979;SDS011;54760;47.490;19.030;2024-03-22T07:31:03;21.12;;;11.57;;
67979;SDS011;54760;47.490;19.030;2024-03-22T07:33:28;19.85;;;11.05;;
67979;SDS011;54760;47.490;19.030;2024-03-22T07:35:53;18.45;;;10.88;;
67979;SDS011;54760;47.490;19.030;2024-03-22T07:38:19;23.58;;;11.77;;
67979;SDS011;54760;47.490;19.030;2024-03-22T07:40:45;18.15;;;11.85;;
67979;SDS011;54760;47.490;19.030;2024-03-22T07:43:11;23.33;;;10.82;;
67979;SDS011;54760;47.490;19.030;2024-03-22T07:45:38;16.83;;;11.65;;
67979;SDS011;54760;47.490;19.030;2024-03-22T07:48:04;16.55;;;11.52;;
67979;SDS011;54760;47.490;19.030;2024-03-22T07:50:30;17.77;;;11.52;;
67979;SDS011;54760;47.490;19.030;2024-03-22T07:52:55;15.48;;;11.02;;
67979;SDS011;54760;47.490;19.030;2024-03-22T07:55:21;24.60;;;11.63;;
67979;SDS011;54760;47.490;19.030;2024-03-22T07:57:47;22.13;;;11.65;;
67979;SDS011;54760;47.490;19.030;2024-03-22T08:00:13;18.20;;;11.80;;
67979;SDS011;54760;47.490;19.030;2024-03-22T08:02:39;17.27;;;11.55;;
67979;SDS011;54760;47.490;19.030;2024-03-22T08:05:04;20.98;;;11.88;;
67979;SDS011;54760;47.490;19.030;2024-03-22T08:07:31;18.35;;;11.73;;
67979;SDS011;54760;47.490;19.030;2024-03-22T08:09:57;17.48;;;11.75;;
67979;SDS011;54760;47.490;19.030;2024-03-22T08:12:24;19.65;;;11.63;;
67979;SDS011;54760;47.490;19.030;2024-03-22T08:14:49;22.02;;;12.30;;
67979;SDS011;54760;47.490;19.030;2024-03-22T08:17:15;19.23;;;11.63;;
67979;SDS011;54760;47.490;19.030;2024-03-22T08:19:41;18.98;;;12.15;;
67979;SDS011;54760;47.490;19.030;2024-03-22T08:22:07;19.83;;;12.20;;
67979;SDS011;54760;47.490;19.030;2024-03-22T08:24:32;17.33;;;11.10;;
67979;SDS011;54760;47.490;19.030;2024-03-22T08:26:58;19.67;;;11.18;;
67979;SDS011;54760;47.490;19.030;2024-03-22T08:29:24;23.65;;;12.20;;
67979;SDS011;54760;47.490;19.030;2024-03-22T08:31:49;18.02;;;11.18;;
67979;SDS011;54760;47.490;19.030;2024-03-22T08:34:15;17.45;;;11.65;;
67979;SDS011;54760;47.490;19.030;2024-03-22T08:36:40;22.27;;;11.90;;
67979;SDS011;54760;47.490;19.030;2024-03-22T08:39:05;18.52;;;11.93;;
67979;SDS011;54760;47.490;19.030;2024-03-22T08:41:35;17.67;;;12.20;;
67979;SDS011;54760;47.490;19.030;2024-03-22T08:44:00;19.23;;;11.63;;
67979;SDS011;54760;47.490;19.030;2024-03-22T08:46:25;19.33;;;12.40;;
67979;SDS011;54760;47.490;19.030;2024-03-22T08:48:53;19.45;;;12.18;;
67979;SDS011;54760;47.490;19.030;2024-03-22T08:51:18;18.02;;;11.40;;
67979;SDS011;54760;47.490;19.030;2024-03-22T08:53:44;20.98;;;11.60;;
67979;SDS011;54760;47.490;19.030;2024-03-22T08:56:09;17.02;;;11.05;;
67979;SDS011;54760;47.490;19.030;2024-03-22T08:58:36;17.45;;;11.07;;
67979;SDS011;54760;47.490;19.030;2024-03-22T09:01:01;17.60;;;11.60;;
67979;SDS011;54760;47.490;19.030;2024-03-22T09:03:27;15.52;;;11.70;;
67979;SDS011;54760;47.490;19.030;2024-03-22T09:05:52;16.65;;;12.10;;
67979;SDS011;54760;47.490;19.030;2024-03-22T09:08:19;23.00;;;12.00;;
67979;SDS011;54760;47.490;19.030;2024-03-22T09:10:46;19.27;;;12.00;;
67979;SDS011;54760;47.490;19.030;2024-03-22T09:13:12;18.50;;;12.15;;
67979;SDS011;54760;47.490;19.030;2024-03-22T09:15:38;15.57;;;11.80;;
67979;SDS011;54760;47.490;19.030;2024-03-22T09:18:03;16.83;;;12.32;;
67979;SDS011;54760;47.490;19.030;2024-03-22T09:20:29;17.52;;;11.15;;
67979;SDS011;54760;47.490;19.030;2024-03-22T09:22:55;16.60;;;11.60;;
67979;SDS011;54760;47.490;19.030;2024-03-22T09:25:20;15.52;;;11.25;;
67979;SDS011;54760;47.490;19.030;2024-03-22T09:27:46;22.02;;;11.80;;
67979;SDS011;54760;47.490;19.030;2024-03-22T09:30:11;16.52;;;11.63;;
67979;SDS011;54760;47.490;19.030;2024-03-22T09:32:37;14.95;;;11.07;;
67979;SDS011;54760;47.490;19.030;2024-03-22T09:35:03;14.50;;;10.73;;
67979;SDS011;54760;47.490;19.030;2024-03-22T09:37:29;15.35;;;10.52;;
67979;SDS011;54760;47.490;19.030;2024-03-22T09:39:54;13.43;;;10.82;;
67979;SDS011;54760;47.490;19.030;2024-03-22T09:42:19;15.52;;;11.45;;
67979;SDS011;54760;47.490;19.030;2024-03-22T09:44:48;20.55;;;11.45;;
67979;SDS011;54760;47.490;19.030;2024-03-22T09:47:15;13.48;;;11.52;;
67979;SDS011;54760;47.490;19.030;2024-03-22T09:49:42;18.87;;;11.63;;
67979;SDS011;54760;47.490;19.030;2024-03-22T09:52:15;21.27;;;11.68;;
67979;SDS011;54760;47.490;19.030;2024-03-22T09:54:44;19.17;;;11.30;;
67979;SDS011;54760;47.490;19.030;2024-03-22T09:57:15;16.77;;;12.18;;
67979;SDS011;54760;47.490;19.030;2024-03-22T09:59:43;15.35;;;11.20;;
67979;SDS011;54760;47.490;19.030;2024-03-22T10:02:10;16.08;;;11.63;;
67979;SDS011;54760;47.490;19.030;2024-03-22T10:04:37;13.73;;;11.23;;
67979;SDS011;54760;47.490;19.030;2024-03-22T10:07:03;16.50;;;11.52;;
67979;SDS011;54760;47.490;19.030;2024-03-22T10:09:29;14.25;;;11.25;;
67979;SDS011;54760;47.490;19.030;2024-03-22T10:11:55;16.55;;;11.80;;
67979;SDS011;54760;47.490;19.030;2024-03-22T10:14:21;14.68;;;11.20;;
67979;SDS011;54760;47.490;19.030;2024-03-22T10:16:50;17.48;;;11.43;;
67979;SDS011;54760;47.490;19.030;2024-03-22T10:19:19;16.60;;;11.27;;
67979;SDS011;54760;47.490;19.030;2024-03-22T10:21:45;15.48;;;10.60;;
67979;SDS011;54760;47.490;19.030;2024-03-22T10:24:11;16.65;;;10.65;;
67979;SDS011;54760;47.490;19.030;2024-03-22T10:26:36;13.02;;;10.05;;
67979;SDS011;54760;47.490;19.030;2024-03-22T10:29:08;17.45;;;11.30;;
67979;SDS011;54760;47.490;19.030;2024-03-22T10:31:35;13.85;;;9.23;;
67979;SDS011;54760;47.490;19.030;2024-03-22T10:34:02;9.70;;;8.25;;
67979;SDS011;54760;47.490;19.030;2024-03-22T10:36:30;11.65;;;9.32;;
67979;SDS011;54760;47.490;19.030;2024-03-22T10:38:57;12.55;;;8.38;;
67979;SDS011;54760;47.490;19.030;2024-03-22T10:41:24;11.90;;;8.27;;
67979;SDS011;54760;47.490;19.030;2024-03-22T10:43:51;10.55;;;8.10;;
67979;SDS011;54760;47.490;19.030;2024-03-22T10:46:16;33.03;;;7.85;;
67979;SDS011;54760;47.490;19.030;2024-03-22T10:48:45;24.98;;;8.20;;
67979;SDS011;54760;47.490;19.030;2024-03-22T10:51:11;11.90;;;7.50;;
67979;SDS011;54760;47.490;19.030;2024-03-22T10:53:39;13.48;;;8.57;;
67979;SDS011;54760;47.490;19.030;2024-03-22T10:56:06;10.77;;;7.57;;
67979;SDS011;54760;47.490;19.030;2024-03-22T10:58:34;10.52;;;8.35;;
67979;SDS011;54760;47.490;19.030;2024-03-22T11:01:04;11.70;;;8.50;;
67979;SDS011;54760;47.490;19.030;2024-03-22T11:03:30;18.67;;;8.73;;
67979;SDS011;54760;47.490;19.030;2024-03-22T11:05:56;11.48;;;9.25;;
67979;SDS011;54760;47.490;19.030;2024-03-22T11:08:28;19.37;;;10.07;;
67979;SDS011;54760;47.490;19.030;2024-03-22T11:10:58;14.65;;;8.35;;
67979;SDS011;54760;47.490;19.030;2024-03-22T11:13:35;11.57;;;7.70;;
67979;SDS011;54760;47.490;19.030;2024-03-22T11:16:01;11.55;;;8.07;;
67979;SDS011;54760;47.490;19.030;2024-03-22T11:18:27;10.15;;;7.93;;
67979;SDS011;54760;47.490;19.030;2024-03-22T11:20:53;10.75;;;7.72;;
67979;SDS011;54760;47.490;19.030;2024-03-22T11:23:19;15.32;;;9.80;;
67979;SDS011;54760;47.490;19.030;2024-03-22T11:25:44;12.65;;;9.70;;
67979;SDS011;54760;47.490;19.030;2024-03-22T11:28:11;16.05;;;9.23;;
67979;SDS011;54760;47.490;19.030;2024-03-22T11:30:37;13.57;;;7.90;;
67979;SDS011;54760;47.490;19.030;2024-03-22T11:33:03;9.90;;;7.43;;
67979;SDS011;54760;47.490;19.030;2024-03-22T11:35:30;10.90;;;8.05;;
67979;SDS011;54760;47.490;19.030;2024-03-22T11:37:56;14.60;;;8.82;;
67979;SDS011;54760;47.490;19.030;2024-03-22T11:40:23;12.48;;;7.97;;
67979;SDS011;54760;47.490;19.030;2024-03-22T11:42:50;11.00;;;8.90;;
67979;SDS011;54760;47.490;19.030;2024-03-22T11:45:19;13.05;;;9.30;;
67979;SDS011;54760;47.490;19.030;2024-03-22T11:47:46;12.00;;;8.20;;
67979;SDS011;54760;47.490;19.030;2024-03-22T11:50:12;9.35;;;8.05;;
67979;SDS011;54760;47.490;19.030;2024-03-22T11:52:40;8.50;;;7.40;;
67979;SDS011;54760;47.490;19.030;2024-03-22T11:55:06;11.25;;;7.22;;
67979;SDS011;54760;47.490;19.030;2024-03-22T11:57:31;10.40;;;7.55;;
67979;SDS011;54760;47.490;19.030;2024-03-22T12:00:00;9.27;;;7.93;;
67979;SDS011;54760;47.490;19.030;2024-03-22T12:02:28;10.60;;;7.85;;
67979;SDS011;54760;47.490;19.030;2024-03-22T12:04:53;8.80;;;7.30;;
67979;SDS011;54760;47.490;19.030;2024-03-22T12:07:19;12.27;;;7.53;;
67979;SDS011;54760;47.490;19.030;2024-03-22T12:09:44;15.15;;;8.20;;
67979;SDS011;54760;47.490;19.030;2024-03-22T12:12:10;11.48;;;8.65;;
67979;SDS011;54760;47.490;19.030;2024-03-22T12:14:37;11.48;;;7.72;;
67979;SDS011;54760;47.490;19.030;2024-03-22T12:17:03;10.23;;;8.07;;
67979;SDS011;54760;47.490;19.030;2024-03-22T12:19:29;17.02;;;8.20;;
67979;SDS011;54760;47.490;19.030;2024-03-22T12:21:55;10.57;;;8.75;;
67979;SDS011;54760;47.490;19.030;2024-03-22T12:24:21;12.50;;;8.93;;
67979;SDS011;54760;47.490;19.030;2024-03-22T12:26:47;12.77;;;9.40;;
67979;SDS011;54760;47.490;19.030;2024-03-22T12:29:14;13.13;;;9.15;;
67979;SDS011;54760;47.490;19.030;2024-03-22T12:31:40;13.90;;;9.27;;
67979;SDS011;54760;47.490;19.030;2024-03-22T12:34:06;11.90;;;8.90;;
67979;SDS011;54760;47.490;19.030;2024-03-22T12:36:32;12.82;;;9.32;;
67979;SDS011;54760;47.490;19.030;2024-03-22T12:38:57;11.25;;;9.18;;
67979;SDS011;54760;47.490;19.030;2024-03-22T12:41:22;13.05;;;9.05;;
67979;SDS011;54760;47.490;19.030;2024-03-22T12:43:48;13.60;;;10.18;;
67979;SDS011;54760;47.490;19.030;2024-03-22T12:46:13;15.20;;;9.43;;
67979;SDS011;54760;47.490;19.030;2024-03-22T12:48:39;13.75;;;9.73;;
67979;SDS011;54760;47.490;19.030;2024-03-22T12:51:05;11.25;;;9.07;;
67979;SDS011;54760;47.490;19.030;2024-03-22T12:53:32;11.10;;;8.60;;
67979;SDS011;54760;47.490;19.030;2024-03-22T12:55:57;13.62;;;8.23;;
67979;SDS011;54760;47.490;19.030;2024-03-22T12:58:22;11.85;;;8.45;;
67979;SDS011;54760;47.490;19.030;2024-03-22T13:00:48;12.35;;;8.68;;
67979;SDS011;54760;47.490;19.030;2024-03-22T13:03:13;11.90;;;8.68;;
67979;SDS011;54760;47.490;19.030;2024-03-22T13:05:40;11.27;;;8.52;;
67979;SDS011;54760;47.490;19.030;2024-03-22T13:08:06;12.35;;;8.73;;
67979;SDS011;54760;47.490;19.030;2024-03-22T13:10:32;11.12;;;8.45;;
67979;SDS011;54760;47.490;19.030;2024-03-22T13:12:57;13.30;;;8.13;;
67979;SDS011;54760;47.490;19.030;2024-03-22T13:15:23;13.07;;;8.30;;
67979;SDS011;54760;47.490;19.030;2024-03-22T13:17:49;11.65;;;8.13;;
67979;SDS011;54760;47.490;19.030;2024-03-22T13:20:15;10.43;;;7.78;;
67979;SDS011;54760;47.490;19.030;2024-03-22T13:22:43;9.65;;;7.68;;
67979;SDS011;54760;47.490;19.030;2024-03-22T13:25:08;11.57;;;8.10;;
67979;SDS011;54760;47.490;19.030;2024-03-22T13:27:35;15.05;;;8.88;;
67979;SDS011;54760;47.490;19.030;2024-03-22T13:30:04;10.60;;;8.35;;
67979;SDS011;54760;47.490;19.030;2024-03-22T13:32:35;11.57;;;8.38;;
67979;SDS011;54760;47.490;19.030;2024-03-22T13:35:03;9.75;;;8.18;;
67979;SDS011;54760;47.490;19.030;2024-03-22T13:37:30;10.48;;;8.32;;
67979;SDS011;54760;47.490;19.030;2024-03-22T13:39:55;9.13;;;8.02;;
67979;SDS011;54760;47.490;19.030;2024-03-22T13:42:21;11.40;;;8.00;;
67979;SDS011;54760;47.490;19.030;2024-03-22T13:44:46;10.70;;;7.95;;
67979;SDS011;54760;47.490;19.030;2024-03-22T13:47:12;11.12;;;8.15;;
67979;SDS011;54760;47.490;19.030;2024-03-22T13:49:37;9.98;;;8.35;;
67979;SDS011;54760;47.490;19.030;2024-03-22T13:52:06;9.98;;;8.45;;
67979;SDS011;54760;47.490;19.030;2024-03-22T13:54:34;10.43;;;8.55;;
67979;SDS011;54760;47.490;19.030;2024-03-22T13:57:00;9.43;;;8.43;;
67979;SDS011;54760;47.490;19.030;2024-03-22T13:59:29;8.65;;;7.43;;
67979;SDS011;54760;47.490;19.030;2024-03-22T14:01:55;8.82;;;6.55;;
67979;SDS011;54760;47.490;19.030;2024-03-22T14:04:21;7.87;;;6.78;;
67979;SDS011;54760;47.490;19.030;2024-03-22T14:06:48;7.55;;;6.47;;
67979;SDS011;54760;47.490;19.030;2024-03-22T14:09:13;8.55;;;6.43;;